createdAt,value
2017-06-21T00:00:00.249Z,14.82
2017-06-21T00:00:28.424Z,14.82
2017-06-21T00:00:56.526Z,14.77
2017-06-21T00:01:24.610Z,14.79
2017-06-21T00:01:52.862Z,14.79
2017-06-21T00:03:04.176Z,14.78
2017-06-21T00:03:32.436Z,14.79
2017-06-21T00:04:00.729Z,14.79
2017-06-21T00:04:28.997Z,14.78
2017-06-21T00:04:57.176Z,14.78
2017-06-21T00:05:25.351Z,14.74
2017-06-21T00:05:53.429Z,14.78
2017-06-21T00:06:21.512Z,14.74
2017-06-21T00:06:49.616Z,14.69
2017-06-21T00:07:17.887Z,14.77
2017-06-21T00:07:46.051Z,14.73
2017-06-21T00:08:57.368Z,14.71
2017-06-21T00:09:25.536Z,14.74
2017-06-21T00:09:53.836Z,14.7
2017-06-21T00:10:21.915Z,14.73
2017-06-21T00:10:50.000Z,14.69
2017-06-21T00:11:18.182Z,14.7
2017-06-21T00:11:46.466Z,14.63
2017-06-21T00:12:14.731Z,14.67
2017-06-21T00:12:42.930Z,14.7
2017-06-21T00:13:11.204Z,14.7
2017-06-21T00:13:39.365Z,14.58
2017-06-21T00:14:50.588Z,14.67
2017-06-21T00:15:18.758Z,14.64
2017-06-21T00:15:46.956Z,14.64
2017-06-21T00:16:15.222Z,14.55
2017-06-21T00:16:43.307Z,14.61
2017-06-21T00:17:11.581Z,14.58
2017-06-21T00:17:39.663Z,14.64
2017-06-21T00:18:07.927Z,14.64
2017-06-21T00:18:36.130Z,14.59
2017-06-21T00:19:04.303Z,14.64
2017-06-21T00:19:32.559Z,14.69
2017-06-21T00:20:43.687Z,14.59
2017-06-21T00:21:11.764Z,14.58
2017-06-21T00:21:40.061Z,14.59
2017-06-21T00:22:08.326Z,14.73
2017-06-21T00:22:36.598Z,14.71
2017-06-21T00:23:04.867Z,14.71
2017-06-21T00:23:32.947Z,14.63
2017-06-21T00:24:01.120Z,14.69
2017-06-21T00:24:29.319Z,14.69
2017-06-21T00:24:57.491Z,14.66
2017-06-21T00:25:25.747Z,14.61
2017-06-21T00:26:36.969Z,14.59
2017-06-21T00:27:05.231Z,14.69
2017-06-21T00:27:33.431Z,14.59
2017-06-21T00:28:01.599Z,14.61
2017-06-21T00:28:29.688Z,14.69
2017-06-21T00:28:57.781Z,14.69
2017-06-21T00:29:25.954Z,14.66
2017-06-21T00:29:54.123Z,14.61
2017-06-21T00:30:22.226Z,14.67
2017-06-21T00:30:50.399Z,14.67
2017-06-21T00:31:18.654Z,14.74
2017-06-21T00:32:30.076Z,14.69
2017-06-21T00:32:58.148Z,14.61
2017-06-21T00:33:26.443Z,14.69
2017-06-21T00:33:54.525Z,14.69
2017-06-21T00:34:22.646Z,14.74
2017-06-21T00:34:50.916Z,14.73
2017-06-21T00:35:19.088Z,14.69
2017-06-21T00:35:47.264Z,14.71
2017-06-21T00:36:15.458Z,14.58
2017-06-21T00:36:43.635Z,14.59
2017-06-21T00:37:11.891Z,14.63
2017-06-21T00:38:23.110Z,14.69
2017-06-21T00:38:51.280Z,14.67
2017-06-21T00:39:19.487Z,14.66
2017-06-21T00:39:47.747Z,14.71
2017-06-21T00:40:15.649Z,14.77
2017-06-21T00:40:43.920Z,14.74
2017-06-21T00:41:12.193Z,14.61
2017-06-21T00:41:40.451Z,14.61
2017-06-21T00:42:08.647Z,14.63
2017-06-21T00:42:36.913Z,14.63
2017-06-21T00:43:05.166Z,14.59
2017-06-21T00:44:16.389Z,14.56
2017-06-21T00:44:44.649Z,14.58
2017-06-21T00:45:12.857Z,14.64
2017-06-21T00:45:41.026Z,14.58
2017-06-21T00:46:09.017Z,14.7
2017-06-21T00:46:37.288Z,14.61
2017-06-21T00:47:05.458Z,14.63
2017-06-21T00:47:33.630Z,14.61
2017-06-21T00:48:01.640Z,14.64
2017-06-21T00:48:29.815Z,14.55
2017-06-21T00:48:58.069Z,14.63
2017-06-21T00:50:09.197Z,14.64
2017-06-21T00:50:37.365Z,14.64
2017-06-21T00:51:05.662Z,14.58
2017-06-21T00:51:33.924Z,14.63
2017-06-21T00:52:02.002Z,14.73
2017-06-21T00:52:30.177Z,14.63
2017-06-21T00:52:58.350Z,14.71
2017-06-21T00:53:26.519Z,14.67
2017-06-21T00:53:54.554Z,14.63
2017-06-21T00:54:22.803Z,14.69
2017-06-21T00:54:51.059Z,14.67
2017-06-21T00:56:02.373Z,14.71
2017-06-21T00:56:30.449Z,14.58
2017-06-21T00:56:58.750Z,14.58
2017-06-21T00:57:27.010Z,14.58
2017-06-21T00:57:55.098Z,14.59
2017-06-21T00:58:23.271Z,14.66
2017-06-21T00:58:51.536Z,14.59
2017-06-21T00:59:19.711Z,14.74
2017-06-21T00:59:48.009Z,14.56
2017-06-21T01:00:16.275Z,14.64
2017-06-21T01:00:44.528Z,14.56
2017-06-21T01:01:55.748Z,14.7
2017-06-21T01:02:23.916Z,14.64
2017-06-21T01:02:52.116Z,14.61
2017-06-21T01:03:20.382Z,14.66
2017-06-21T01:03:48.555Z,14.64
2017-06-21T01:04:16.731Z,14.63
2017-06-21T01:04:44.900Z,14.71
2017-06-21T01:05:13.163Z,14.7
2017-06-21T01:05:41.364Z,14.73
2017-06-21T01:06:09.538Z,14.66
2017-06-21T01:06:37.701Z,14.64
2017-06-21T01:07:49.016Z,14.71
2017-06-21T01:08:17.090Z,14.71
2017-06-21T01:08:45.383Z,14.7
2017-06-21T01:09:13.554Z,14.77
2017-06-21T01:09:41.447Z,14.71
2017-06-21T01:10:09.720Z,14.66
2017-06-21T01:10:38.004Z,14.66
2017-06-21T01:11:06.173Z,14.64
2017-06-21T01:11:34.471Z,14.56
2017-06-21T01:12:02.742Z,14.61
2017-06-21T01:12:30.990Z,14.63
2017-06-21T01:13:42.214Z,14.64
2017-06-21T01:14:10.289Z,14.67
2017-06-21T01:14:38.584Z,14.71
2017-06-21T01:15:06.847Z,14.73
2017-06-21T01:15:35.121Z,14.7
2017-06-21T01:16:03.294Z,14.66
2017-06-21T01:16:31.470Z,14.64
2017-06-21T01:16:59.637Z,14.71
2017-06-21T01:17:27.927Z,14.77
2017-06-21T01:17:56.104Z,14.73
2017-06-21T01:18:24.264Z,14.63
2017-06-21T01:19:35.628Z,14.78
2017-06-21T01:20:03.891Z,14.71
2017-06-21T01:20:32.191Z,14.73
2017-06-21T01:21:00.355Z,14.69
2017-06-21T01:21:28.438Z,14.69
2017-06-21T01:21:56.517Z,14.74
2017-06-21T01:22:24.693Z,14.71
2017-06-21T01:22:52.959Z,14.69
2017-06-21T01:23:21.255Z,14.69
2017-06-21T01:23:49.523Z,14.73
2017-06-21T01:24:17.778Z,14.73
2017-06-21T01:25:29.091Z,14.74
2017-06-21T01:25:57.075Z,14.74
2017-06-21T01:26:25.274Z,14.74
2017-06-21T01:26:53.449Z,14.7
2017-06-21T01:27:21.724Z,14.74
2017-06-21T01:27:49.996Z,14.71
2017-06-21T01:28:18.169Z,14.78
2017-06-21T01:28:46.339Z,14.78
2017-06-21T01:29:14.443Z,14.79
2017-06-21T01:29:42.623Z,14.79
2017-06-21T01:30:10.789Z,14.83
2017-06-21T01:31:22.011Z,14.89
2017-06-21T01:31:50.179Z,14.78
2017-06-21T01:32:18.388Z,14.82
2017-06-21T01:32:46.654Z,14.79
2017-06-21T01:33:14.740Z,14.93
2017-06-21T01:33:43.009Z,14.87
2017-06-21T01:34:11.279Z,14.79
2017-06-21T01:34:39.453Z,14.86
2017-06-21T01:35:07.656Z,14.9
2017-06-21T01:35:35.829Z,14.89
2017-06-21T01:36:04.085Z,14.89
2017-06-21T01:37:15.401Z,14.86
2017-06-21T01:37:43.480Z,14.85
2017-06-21T01:38:11.685Z,14.92
2017-06-21T01:38:39.762Z,14.87
2017-06-21T01:39:07.847Z,14.86
2017-06-21T01:39:36.019Z,14.89
2017-06-21T01:40:04.357Z,14.9
2017-06-21T01:40:32.534Z,14.89
2017-06-21T01:41:00.734Z,14.93
2017-06-21T01:41:29.001Z,14.86
2017-06-21T01:41:57.257Z,14.95
2017-06-21T01:43:08.480Z,14.87
2017-06-21T01:43:36.652Z,14.9
2017-06-21T01:44:04.950Z,14.96
2017-06-21T01:44:33.215Z,14.9
2017-06-21T01:45:01.394Z,14.89
2017-06-21T01:45:29.663Z,14.92
2017-06-21T01:45:57.747Z,14.97
2017-06-21T01:46:25.927Z,14.89
2017-06-21T01:46:54.125Z,14.96
2017-06-21T01:47:22.396Z,14.96
2017-06-21T01:47:50.648Z,14.96
2017-06-21T01:49:01.965Z,14.93
2017-06-21T01:49:29.948Z,14.95
2017-06-21T01:49:58.147Z,14.92
2017-06-21T01:50:26.317Z,14.97
2017-06-21T01:50:54.592Z,14.87
2017-06-21T01:51:22.862Z,14.95
2017-06-21T01:51:51.037Z,14.97
2017-06-21T01:52:19.301Z,14.97
2017-06-21T01:52:47.504Z,14.95
2017-06-21T01:53:15.586Z,14.96
2017-06-21T01:53:43.850Z,14.92
2017-06-21T01:54:55.171Z,14.97
2017-06-21T01:55:23.434Z,14.99
2017-06-21T01:55:51.732Z,14.93
2017-06-21T01:56:19.992Z,14.97
2017-06-21T01:56:48.000Z,14.96
2017-06-21T01:57:16.087Z,14.93
2017-06-21T01:57:44.360Z,15.01
2017-06-21T01:58:12.537Z,14.92
2017-06-21T01:58:40.736Z,14.95
2017-06-21T01:59:08.915Z,14.89
2017-06-21T01:59:37.076Z,14.97
2017-06-21T02:00:48.390Z,14.93
2017-06-21T02:01:16.651Z,14.93
2017-06-21T02:01:44.946Z,15.01
2017-06-21T02:02:13.208Z,14.96
2017-06-21T02:02:41.383Z,15.01
2017-06-21T02:03:09.655Z,14.97
2017-06-21T02:03:37.831Z,14.93
2017-06-21T02:04:06.099Z,14.93
2017-06-21T02:04:34.391Z,14.93
2017-06-21T02:05:02.566Z,15.01
2017-06-21T02:05:30.822Z,14.93
2017-06-21T02:06:42.136Z,14.95
2017-06-21T02:07:10.306Z,14.93
2017-06-21T02:07:38.605Z,14.97
2017-06-21T02:08:06.777Z,14.93
2017-06-21T02:08:34.958Z,14.96
2017-06-21T02:09:03.135Z,14.93
2017-06-21T02:09:31.404Z,14.99
2017-06-21T02:09:59.578Z,14.95
2017-06-21T02:10:27.680Z,14.95
2017-06-21T02:10:55.853Z,14.92
2017-06-21T02:11:24.011Z,14.93
2017-06-21T02:12:35.330Z,14.96
2017-06-21T02:13:03.501Z,14.93
2017-06-21T02:13:31.797Z,14.92
2017-06-21T02:13:59.973Z,14.95
2017-06-21T02:14:28.060Z,14.95
2017-06-21T02:14:56.330Z,14.95
2017-06-21T02:15:24.508Z,14.96
2017-06-21T02:15:52.677Z,14.97
2017-06-21T02:16:20.879Z,14.93
2017-06-21T02:16:49.145Z,14.93
2017-06-21T02:17:17.398Z,14.97
2017-06-21T02:18:28.621Z,14.96
2017-06-21T02:18:56.789Z,14.97
2017-06-21T02:19:25.089Z,14.92
2017-06-21T02:19:53.260Z,14.95
2017-06-21T02:20:21.257Z,14.97
2017-06-21T02:20:49.527Z,15.01
2017-06-21T02:21:17.797Z,14.97
2017-06-21T02:21:46.069Z,15.03
2017-06-21T02:22:14.358Z,14.87
2017-06-21T02:22:42.535Z,14.86
2017-06-21T02:23:10.788Z,14.95
2017-06-21T02:24:22.104Z,14.97
2017-06-21T02:24:50.273Z,14.97
2017-06-21T02:25:18.385Z,14.97
2017-06-21T02:25:46.651Z,14.95
2017-06-21T02:26:14.923Z,14.95
2017-06-21T02:26:43.010Z,14.96
2017-06-21T02:27:11.196Z,15.01
2017-06-21T02:27:39.460Z,14.99
2017-06-21T02:28:07.478Z,14.9
2017-06-21T02:28:35.746Z,14.96
2017-06-21T02:29:03.907Z,14.96
2017-06-21T02:30:15.225Z,14.97
2017-06-21T02:30:43.396Z,14.96
2017-06-21T02:31:11.695Z,14.97
2017-06-21T02:31:39.868Z,14.95
2017-06-21T02:32:08.142Z,14.96
2017-06-21T02:32:36.410Z,14.93
2017-06-21T02:33:04.679Z,14.97
2017-06-21T02:33:32.942Z,14.99
2017-06-21T02:34:01.239Z,14.97
2017-06-21T02:34:29.416Z,14.95
2017-06-21T02:34:57.481Z,14.96
2017-06-21T02:36:08.798Z,15.01
2017-06-21T02:36:36.973Z,14.93
2017-06-21T02:37:05.083Z,14.96
2017-06-21T02:37:33.349Z,14.97
2017-06-21T02:38:01.433Z,14.97
2017-06-21T02:38:29.512Z,14.99
2017-06-21T02:38:57.695Z,14.97
2017-06-21T02:39:25.865Z,14.99
2017-06-21T02:39:54.064Z,14.97
2017-06-21T02:40:22.146Z,14.95
2017-06-21T02:40:50.401Z,14.95
2017-06-21T02:42:01.624Z,15.05
2017-06-21T02:42:29.697Z,14.97
2017-06-21T02:42:57.991Z,15.05
2017-06-21T02:43:26.175Z,15.01
2017-06-21T02:43:54.446Z,15.03
2017-06-21T02:44:22.717Z,15.01
2017-06-21T02:44:50.982Z,14.97
2017-06-21T02:45:19.155Z,15.05
2017-06-21T02:45:47.165Z,15.04
2017-06-21T02:46:15.345Z,15.04
2017-06-21T02:46:43.506Z,15.07
2017-06-21T02:47:54.823Z,15.01
2017-06-21T02:48:22.900Z,14.97
2017-06-21T02:48:51.099Z,15.07
2017-06-21T02:49:19.266Z,15.01
2017-06-21T02:49:47.445Z,14.97
2017-06-21T02:50:15.525Z,15.01
2017-06-21T02:50:43.793Z,15.04
2017-06-21T02:51:12.061Z,14.99
2017-06-21T02:51:40.359Z,15.04
2017-06-21T02:52:08.624Z,15.05
2017-06-21T02:52:36.878Z,15.07
2017-06-21T02:53:48.194Z,15.05
2017-06-21T02:54:16.363Z,15.1
2017-06-21T02:54:44.567Z,14.99
2017-06-21T02:55:12.739Z,14.96
2017-06-21T02:55:41.014Z,15.03
2017-06-21T02:56:09.283Z,14.97
2017-06-21T02:56:37.458Z,15.01
2017-06-21T02:57:05.726Z,14.96
2017-06-21T02:57:33.925Z,15.01
2017-06-21T02:58:02.194Z,14.97
2017-06-21T02:58:30.448Z,14.97
2017-06-21T02:59:41.673Z,14.96
2017-06-21T03:00:09.749Z,15.04
2017-06-21T03:00:38.046Z,15.01
2017-06-21T03:01:06.308Z,14.89
2017-06-21T03:01:34.398Z,14.97
2017-06-21T03:02:02.575Z,14.99
2017-06-21T03:02:30.743Z,14.95
2017-06-21T03:02:58.910Z,15.01
2017-06-21T03:03:27.012Z,15.04
2017-06-21T03:03:55.184Z,15.05
2017-06-21T03:04:23.340Z,15.05
2017-06-21T03:05:34.661Z,15.03
2017-06-21T03:06:02.839Z,15.07
2017-06-21T03:06:31.047Z,14.99
2017-06-21T03:06:59.296Z,14.96
2017-06-21T03:07:27.383Z,15.05
2017-06-21T03:07:55.559Z,15.01
2017-06-21T03:08:23.831Z,15.05
2017-06-21T03:08:52.099Z,15.07
2017-06-21T03:09:20.206Z,15.05
2017-06-21T03:09:48.192Z,15.03
2017-06-21T03:10:16.350Z,15.01
2017-06-21T03:11:27.575Z,15.04
2017-06-21T03:11:55.747Z,15.03
2017-06-21T03:12:24.041Z,15.03
2017-06-21T03:12:52.213Z,14.97
2017-06-21T03:13:20.390Z,14.96
2017-06-21T03:13:48.565Z,15.04
2017-06-21T03:14:16.737Z,15.04
2017-06-21T03:14:44.998Z,15.04
2017-06-21T03:15:13.202Z,14.97
2017-06-21T03:15:41.373Z,15.03
2017-06-21T03:16:09.627Z,15.01
2017-06-21T03:17:20.847Z,15.05
2017-06-21T03:17:49.017Z,15.03
2017-06-21T03:18:17.317Z,14.99
2017-06-21T03:18:45.586Z,15.01
2017-06-21T03:19:13.859Z,15.03
2017-06-21T03:19:42.035Z,14.97
2017-06-21T03:20:10.305Z,15.03
2017-06-21T03:20:38.568Z,15.04
2017-06-21T03:21:06.678Z,15.03
2017-06-21T03:21:34.855Z,15.05
2017-06-21T03:22:03.110Z,15.04
2017-06-21T03:23:14.427Z,14.99
2017-06-21T03:23:42.601Z,15.03
2017-06-21T03:24:10.894Z,15.04
2017-06-21T03:24:39.066Z,14.99
2017-06-21T03:25:07.340Z,14.96
2017-06-21T03:25:35.615Z,15.01
2017-06-21T03:26:03.878Z,14.99
2017-06-21T03:26:32.143Z,15.05
2017-06-21T03:27:00.348Z,15.04
2017-06-21T03:27:28.615Z,15.01
2017-06-21T03:27:56.779Z,15.07
2017-06-21T03:29:08.098Z,14.99
2017-06-21T03:29:36.361Z,15.01
2017-06-21T03:30:04.566Z,15.05
2017-06-21T03:30:32.831Z,15.03
2017-06-21T03:31:01.008Z,15.03
2017-06-21T03:31:29.278Z,14.97
2017-06-21T03:31:57.451Z,14.99
2017-06-21T03:32:25.722Z,15.01
2017-06-21T03:32:54.015Z,14.99
2017-06-21T03:33:22.001Z,15.03
2017-06-21T03:33:50.068Z,15.04
2017-06-21T03:35:01.744Z,15.01
2017-06-21T03:35:30.009Z,15.03
2017-06-21T03:35:58.115Z,15.03
2017-06-21T03:36:26.283Z,15.05
2017-06-21T03:36:54.463Z,14.99
2017-06-21T03:37:22.642Z,14.99
2017-06-21T03:37:50.819Z,15.03
2017-06-21T03:38:18.804Z,15.01
2017-06-21T03:38:47.095Z,15.03
2017-06-21T03:39:15.363Z,14.99
2017-06-21T03:39:43.525Z,15.03
2017-06-21T03:40:54.746Z,15.03
2017-06-21T03:41:22.820Z,14.95
2017-06-21T03:41:51.021Z,15.08
2017-06-21T03:42:19.002Z,14.96
2017-06-21T03:42:47.085Z,14.99
2017-06-21T03:43:15.263Z,15.03
2017-06-21T03:43:43.436Z,15.07
2017-06-21T03:44:11.418Z,14.97
2017-06-21T03:44:39.703Z,14.99
2017-06-21T03:45:07.969Z,15.1
2017-06-21T03:45:35.945Z,15.01
2017-06-21T03:46:47.259Z,15.05
2017-06-21T03:47:15.424Z,15.03
2017-06-21T03:47:43.626Z,15.03
2017-06-21T03:48:11.886Z,15.03
2017-06-21T03:48:40.072Z,14.97
2017-06-21T03:49:08.245Z,14.87
2017-06-21T03:49:36.322Z,15.01
2017-06-21T03:50:04.493Z,14.97
2017-06-21T03:50:32.787Z,15.07
2017-06-21T03:51:00.955Z,15.01
2017-06-21T03:51:29.021Z,15.03
2017-06-21T03:52:40.239Z,15.01
2017-06-21T03:53:08.403Z,14.97
2017-06-21T03:53:36.510Z,15.01
2017-06-21T03:54:04.680Z,15.05
2017-06-21T03:54:32.956Z,14.99
2017-06-21T03:55:01.130Z,15.01
2017-06-21T03:55:29.400Z,15.07
2017-06-21T03:55:57.665Z,15.05
2017-06-21T03:56:25.956Z,15.05
2017-06-21T03:56:54.126Z,15.03
2017-06-21T03:57:22.287Z,15.03
2017-06-21T03:58:33.418Z,15.07
2017-06-21T03:59:01.678Z,15.05
2017-06-21T03:59:29.693Z,15.1
2017-06-21T03:59:57.860Z,15.05
2017-06-21T04:00:26.129Z,15.05
2017-06-21T04:00:54.118Z,15.04
2017-06-21T04:01:22.383Z,15.07
2017-06-21T04:01:50.460Z,15.07
2017-06-21T04:02:18.754Z,15.1
2017-06-21T04:02:46.834Z,15.07
2017-06-21T04:03:14.992Z,15.03
2017-06-21T04:04:26.314Z,15.1
2017-06-21T04:04:54.570Z,15.05
2017-06-21T04:05:22.773Z,15.08
2017-06-21T04:05:50.945Z,15.04
2017-06-21T04:06:19.212Z,15.1
2017-06-21T04:06:47.289Z,15.14
2017-06-21T04:07:15.367Z,15.1
2017-06-21T04:07:43.537Z,15.14
2017-06-21T04:08:11.736Z,15.11
2017-06-21T04:08:39.810Z,15.07
2017-06-21T04:09:07.785Z,15.07
2017-06-21T04:10:19.097Z,15.11
2017-06-21T04:10:47.197Z,15.19
2017-06-21T04:11:15.369Z,15.1
2017-06-21T04:11:43.628Z,15.12
2017-06-21T04:12:11.812Z,15.08
2017-06-21T04:12:40.083Z,15.1
2017-06-21T04:13:08.346Z,15.04
2017-06-21T04:13:36.328Z,15.17
2017-06-21T04:14:04.620Z,15.1
2017-06-21T04:14:32.799Z,15.12
2017-06-21T04:15:00.960Z,15.12
2017-06-21T04:16:12.186Z,15.12
2017-06-21T04:16:40.397Z,15.1
2017-06-21T04:17:08.586Z,15.11
2017-06-21T04:17:36.839Z,15.12
2017-06-21T04:18:05.092Z,15.12
2017-06-21T04:18:33.190Z,15.12
2017-06-21T04:19:01.397Z,15.14
2017-06-21T04:19:29.573Z,15.11
2017-06-21T04:19:57.893Z,15.17
2017-06-21T04:20:25.961Z,15.11
2017-06-21T04:20:54.111Z,15.11
2017-06-21T04:22:05.401Z,15.1
2017-06-21T04:22:33.609Z,15.1
2017-06-21T04:23:01.881Z,15.07
2017-06-21T04:23:30.035Z,15.08
2017-06-21T04:23:58.288Z,15.1
2017-06-21T04:24:26.479Z,14.99
2017-06-21T04:24:54.787Z,15.01
2017-06-21T04:25:23.056Z,15.03
2017-06-21T04:25:51.374Z,14.99
2017-06-21T04:26:19.634Z,14.95
2017-06-21T04:26:47.879Z,14.96
2017-06-21T04:27:59.072Z,14.96
2017-06-21T04:28:27.187Z,14.97
2017-06-21T04:28:55.461Z,14.86
2017-06-21T04:29:23.616Z,14.89
2017-06-21T04:29:51.866Z,14.89
2017-06-21T04:30:19.959Z,14.86
2017-06-21T04:30:48.073Z,14.79
2017-06-21T04:31:16.339Z,14.79
2017-06-21T04:31:44.563Z,14.7
2017-06-21T04:32:12.730Z,14.73
2017-06-21T04:32:40.791Z,14.77
2017-06-21T04:33:52.087Z,14.78
2017-06-21T04:34:20.387Z,14.73
2017-06-21T04:34:48.659Z,14.71
2017-06-21T04:35:16.622Z,14.77
2017-06-21T04:35:44.876Z,14.71
2017-06-21T04:36:13.068Z,14.7
2017-06-21T04:36:41.274Z,14.73
2017-06-21T04:37:09.449Z,14.73
2017-06-21T04:37:37.771Z,14.67
2017-06-21T04:38:06.035Z,14.63
2017-06-21T04:38:34.275Z,14.64
2017-06-21T04:39:45.475Z,14.59
2017-06-21T04:40:13.776Z,14.71
2017-06-21T04:40:42.052Z,14.56
2017-06-21T04:41:10.113Z,14.66
2017-06-21T04:41:38.369Z,14.58
2017-06-21T04:42:06.563Z,14.69
2017-06-21T04:42:34.770Z,14.59
2017-06-21T04:43:02.945Z,14.67
2017-06-21T04:43:31.264Z,14.67
2017-06-21T04:43:59.430Z,14.63
2017-06-21T04:44:27.583Z,14.61
2017-06-21T04:45:38.876Z,14.63
2017-06-21T04:46:07.176Z,14.63
2017-06-21T04:46:35.357Z,14.63
2017-06-21T04:47:03.511Z,14.7
2017-06-21T04:47:31.576Z,14.64
2017-06-21T04:47:59.866Z,14.66
2017-06-21T04:48:28.165Z,14.66
2017-06-21T04:48:56.445Z,14.64
2017-06-21T04:49:24.682Z,14.66
2017-06-21T04:49:52.665Z,14.69
2017-06-21T04:50:20.908Z,14.59
2017-06-21T04:51:32.028Z,14.59
2017-06-21T04:52:00.332Z,14.63
2017-06-21T04:52:28.608Z,14.67
2017-06-21T04:52:56.795Z,14.64
2017-06-21T04:53:24.970Z,14.63
2017-06-21T04:53:53.160Z,14.67
2017-06-21T04:54:21.480Z,14.64
2017-06-21T04:54:49.664Z,14.69
2017-06-21T04:55:17.812Z,14.61
2017-06-21T04:55:45.983Z,14.63
2017-06-21T04:56:14.138Z,14.63
2017-06-21T04:57:25.353Z,14.63
2017-06-21T04:57:53.652Z,14.63
2017-06-21T04:58:21.930Z,14.61
2017-06-21T04:58:50.203Z,14.61
2017-06-21T04:59:18.371Z,14.58
2017-06-21T04:59:46.469Z,14.56
2017-06-21T05:00:14.697Z,14.59
2017-06-21T05:00:42.982Z,14.63
2017-06-21T05:01:11.318Z,14.64
2017-06-21T05:01:39.576Z,14.61
2017-06-21T05:02:07.731Z,14.63
2017-06-21T05:03:18.941Z,14.59
2017-06-21T05:03:47.241Z,14.63
2017-06-21T05:04:15.515Z,14.61
2017-06-21T05:04:43.694Z,14.66
2017-06-21T05:05:11.965Z,14.63
2017-06-21T05:05:40.151Z,14.63
2017-06-21T05:06:08.468Z,14.59
2017-06-21T05:06:36.652Z,14.63
2017-06-21T05:07:04.798Z,14.63
2017-06-21T05:07:32.971Z,14.56
2017-06-21T05:08:01.123Z,14.69
2017-06-21T05:09:12.426Z,14.66
2017-06-21T05:09:40.542Z,14.67
2017-06-21T05:10:08.719Z,14.59
2017-06-21T05:10:37.002Z,14.63
2017-06-21T05:11:05.268Z,14.63
2017-06-21T05:11:33.460Z,14.63
2017-06-21T05:12:01.687Z,14.63
2017-06-21T05:12:29.966Z,14.67
2017-06-21T05:12:58.297Z,14.63
2017-06-21T05:13:26.465Z,14.64
2017-06-21T05:13:54.518Z,14.66
2017-06-21T05:15:05.723Z,14.69
2017-06-21T05:15:34.024Z,14.67
2017-06-21T05:16:02.298Z,14.64
2017-06-21T05:16:30.574Z,14.71
2017-06-21T05:16:58.845Z,14.64
2017-06-21T05:17:26.943Z,14.61
2017-06-21T05:17:55.259Z,14.71
2017-06-21T05:18:23.448Z,14.61
2017-06-21T05:18:51.780Z,14.63
2017-06-21T05:19:19.949Z,14.64
2017-06-21T05:19:48.191Z,14.71
2017-06-21T05:20:59.497Z,14.66
2017-06-21T05:21:27.702Z,14.61
2017-06-21T05:21:55.976Z,14.7
2017-06-21T05:22:24.163Z,14.61
2017-06-21T05:22:52.429Z,14.67
2017-06-21T05:23:20.532Z,14.71
2017-06-21T05:23:48.755Z,14.64
2017-06-21T05:24:16.944Z,14.74
2017-06-21T05:24:45.087Z,14.61
2017-06-21T05:25:13.349Z,14.67
2017-06-21T05:25:41.495Z,14.66
2017-06-21T05:26:52.609Z,14.67
2017-06-21T05:27:20.730Z,14.69
2017-06-21T05:27:48.822Z,14.64
2017-06-21T05:28:17.102Z,14.7
2017-06-21T05:28:45.370Z,14.67
2017-06-21T05:29:13.466Z,14.58
2017-06-21T05:29:41.692Z,14.67
2017-06-21T05:30:09.976Z,14.64
2017-06-21T05:30:38.219Z,14.64
2017-06-21T05:31:06.290Z,14.63
2017-06-21T05:31:34.442Z,14.64
2017-06-21T05:32:45.746Z,14.7
2017-06-21T05:33:14.046Z,14.7
2017-06-21T05:33:42.224Z,14.73
2017-06-21T05:34:10.512Z,14.58
2017-06-21T05:34:38.588Z,14.73
2017-06-21T05:35:06.872Z,14.7
2017-06-21T05:35:35.094Z,14.56
2017-06-21T05:36:03.281Z,14.59
2017-06-21T05:36:31.520Z,14.77
2017-06-21T05:36:59.687Z,14.59
2017-06-21T05:37:27.936Z,14.59
2017-06-21T05:38:39.145Z,14.7
2017-06-21T05:39:07.443Z,14.64
2017-06-21T05:39:35.712Z,14.63
2017-06-21T05:40:03.995Z,14.61
2017-06-21T05:40:32.075Z,14.69
2017-06-21T05:41:00.358Z,14.74
2017-06-21T05:41:28.577Z,14.7
2017-06-21T05:41:56.763Z,14.64
2017-06-21T05:42:25.001Z,14.7
2017-06-21T05:42:53.067Z,14.77
2017-06-21T05:43:21.305Z,14.67
2017-06-21T05:44:32.608Z,14.71
2017-06-21T05:45:00.909Z,14.71
2017-06-21T05:45:29.185Z,14.63
2017-06-21T05:45:57.458Z,14.73
2017-06-21T05:46:25.629Z,14.71
2017-06-21T05:46:53.909Z,14.69
2017-06-21T05:47:22.222Z,14.66
2017-06-21T05:47:50.409Z,14.69
2017-06-21T05:48:18.555Z,14.7
2017-06-21T05:48:46.724Z,14.74
2017-06-21T05:49:14.972Z,14.7
2017-06-21T05:50:26.280Z,14.71
2017-06-21T05:50:54.489Z,14.67
2017-06-21T05:51:22.574Z,14.73
2017-06-21T05:51:50.851Z,14.74
2017-06-21T05:52:19.019Z,14.74
2017-06-21T05:52:47.215Z,14.71
2017-06-21T05:53:15.441Z,14.73
2017-06-21T05:53:43.628Z,14.74
2017-06-21T05:54:11.958Z,14.74
2017-06-21T05:54:40.219Z,14.74
2017-06-21T05:55:08.463Z,14.78
2017-06-21T05:56:19.767Z,14.73
2017-06-21T05:56:48.069Z,14.77
2017-06-21T05:57:16.251Z,14.82
2017-06-21T05:57:44.530Z,14.78
2017-06-21T05:58:12.788Z,14.67
2017-06-21T05:58:40.887Z,14.78
2017-06-21T05:59:09.110Z,14.77
2017-06-21T05:59:37.295Z,14.74
2017-06-21T06:00:05.627Z,14.7
2017-06-21T06:00:33.795Z,14.74
2017-06-21T06:01:02.041Z,14.77
2017-06-21T06:02:13.345Z,14.66
2017-06-21T06:02:41.642Z,14.77
2017-06-21T06:03:09.730Z,14.77
2017-06-21T06:03:38.007Z,14.67
2017-06-21T06:04:06.182Z,14.77
2017-06-21T06:04:34.465Z,14.83
2017-06-21T06:05:02.685Z,14.67
2017-06-21T06:05:30.965Z,14.85
2017-06-21T06:05:59.208Z,14.82
2017-06-21T06:06:27.377Z,14.82
2017-06-21T06:06:55.618Z,14.78
2017-06-21T06:08:06.922Z,14.83
2017-06-21T06:08:35.125Z,14.71
2017-06-21T06:09:03.398Z,14.77
2017-06-21T06:09:31.680Z,14.82
2017-06-21T06:09:59.947Z,14.82
2017-06-21T06:10:28.143Z,14.77
2017-06-21T06:10:56.362Z,14.85
2017-06-21T06:11:24.553Z,14.85
2017-06-21T06:11:52.889Z,14.86
2017-06-21T06:12:21.155Z,14.89
2017-06-21T06:12:49.396Z,14.9
2017-06-21T06:14:00.412Z,14.96
2017-06-21T06:14:28.618Z,14.87
2017-06-21T06:14:56.889Z,14.87
2017-06-21T06:15:25.171Z,14.9
2017-06-21T06:15:53.342Z,14.89
2017-06-21T06:16:21.626Z,14.89
2017-06-21T06:16:49.848Z,14.87
2017-06-21T06:17:18.127Z,14.89
2017-06-21T06:17:46.367Z,14.83
2017-06-21T06:18:14.535Z,14.87
2017-06-21T06:18:42.780Z,14.87
2017-06-21T06:19:54.087Z,14.9
2017-06-21T06:20:22.386Z,14.92
2017-06-21T06:20:50.663Z,14.87
2017-06-21T06:21:18.934Z,14.85
2017-06-21T06:21:47.193Z,14.87
2017-06-21T06:22:15.480Z,14.87
2017-06-21T06:22:43.699Z,14.9
2017-06-21T06:23:11.695Z,14.92
2017-06-21T06:23:39.930Z,14.86
2017-06-21T06:24:08.195Z,14.89
2017-06-21T06:24:36.439Z,14.9
2017-06-21T06:25:47.644Z,14.87
2017-06-21T06:26:15.750Z,14.9
2017-06-21T06:26:44.029Z,14.92
2017-06-21T06:27:12.312Z,14.96
2017-06-21T06:27:40.477Z,14.87
2017-06-21T06:28:08.665Z,14.93
2017-06-21T06:28:36.995Z,15.01
2017-06-21T06:29:05.279Z,14.99
2017-06-21T06:29:33.604Z,14.97
2017-06-21T06:30:01.853Z,15.03
2017-06-21T06:30:30.100Z,14.93
2017-06-21T06:31:41.390Z,14.97
2017-06-21T06:32:09.595Z,15.03
2017-06-21T06:32:37.774Z,15.05
2017-06-21T06:33:06.054Z,14.93
2017-06-21T06:33:34.212Z,14.93
2017-06-21T06:34:02.403Z,14.99
2017-06-21T06:34:30.609Z,14.97
2017-06-21T06:34:58.694Z,14.97
2017-06-21T06:35:27.044Z,14.96
2017-06-21T06:35:55.218Z,14.97
2017-06-21T06:36:23.460Z,14.96
2017-06-21T06:37:34.653Z,14.97
2017-06-21T06:38:02.863Z,14.96
2017-06-21T06:38:31.062Z,14.95
2017-06-21T06:38:59.296Z,14.97
2017-06-21T06:39:27.262Z,15.03
2017-06-21T06:39:55.542Z,15.01
2017-06-21T06:40:23.752Z,15.03
2017-06-21T06:40:51.924Z,15.03
2017-06-21T06:41:20.147Z,14.97
2017-06-21T06:41:48.222Z,14.99
2017-06-21T06:42:16.468Z,15.01
2017-06-21T06:43:27.664Z,15.05
2017-06-21T06:43:55.873Z,15.07
2017-06-21T06:44:23.959Z,15.01
2017-06-21T06:44:52.206Z,15.01
2017-06-21T06:45:20.359Z,14.97
2017-06-21T06:45:48.556Z,15.04
2017-06-21T06:46:16.769Z,15.01
2017-06-21T06:46:45.035Z,14.99
2017-06-21T06:47:13.171Z,15.03
2017-06-21T06:47:41.347Z,15.05
2017-06-21T06:48:09.577Z,14.96
2017-06-21T06:49:20.777Z,15.01
2017-06-21T06:49:49.077Z,14.99
2017-06-21T06:50:17.259Z,15.1
2017-06-21T06:50:45.511Z,15.03
2017-06-21T06:51:13.511Z,15.03
2017-06-21T06:51:41.665Z,15.01
2017-06-21T06:52:09.965Z,15.05
2017-06-21T06:52:38.133Z,15.04
2017-06-21T06:53:06.269Z,14.97
2017-06-21T06:53:34.341Z,15.07
2017-06-21T06:54:02.587Z,14.97